sensor_id;sensor_type;location;lat;lon;timestamp;temperature;humidity
60868;DHT22;46702;48.370;10.794;2023-05-07T00:00:47;11.90;99.90
60868;DHT22;46702;48.370;10.794;2023-05-07T00:03:13;11.90;99.90
60868;DHT22;46702;48.370;10.794;2023-05-07T00:05:39;12.00;99.90
60868;DHT22;46702;48.370;10.794;2023-05-07T00:08:05;11.90;99.90
60868;DHT22;46702;48.370;10.794;2023-05-07T00:10:30;11.60;99.90
60868;DHT22;46702;48.370;10.794;2023-05-07T00:12:56;11.50;99.90
60868;DHT22;46702;48.370;10.794;2023-05-07T00:15:21;11.40;99.90
60868;DHT22;46702;48.370;10.794;2023-05-07T00:17:47;11.40;99.90
60868;DHT22;46702;48.370;10.794;2023-05-07T00:20:13;11.30;99.90
60868;DHT22;46702;48.370;10.794;2023-05-07T00:22:38;11.20;99.90
60868;DHT22;46702;48.370;10.794;2023-05-07T00:25:04;11.30;99.90
60868;DHT22;46702;48.370;10.794;2023-05-07T00:27:30;11.40;99.90
60868;DHT22;46702;48.370;10.794;2023-05-07T00:29:56;11.50;99.90
60868;DHT22;46702;48.370;10.794;2023-05-07T00:32:21;11.60;99.90
60868;DHT22;46702;48.370;10.794;2023-05-07T00:34:47;11.50;99.90
60868;DHT22;46702;48.370;10.794;2023-05-07T00:37:13;11.60;99.90
60868;DHT22;46702;48.370;10.794;2023-05-07T00:39:38;11.60;99.90
60868;DHT22;46702;48.370;10.794;2023-05-07T00:42:04;11.60;99.90
60868;DHT22;46702;48.370;10.794;2023-05-07T00:44:30;11.60;99.90
60868;DHT22;46702;48.370;10.794;2023-05-07T00:46:56;11.60;99.90
60868;DHT22;46702;48.370;10.794;2023-05-07T00:49:23;11.60;99.90
60868;DHT22;46702;48.370;10.794;2023-05-07T00:51:52;11.60;99.90
60868;DHT22;46702;48.370;10.794;2023-05-07T00:54:17;11.50;99.90
60868;DHT22;46702;48.370;10.794;2023-05-07T00:56:44;11.40;99.90
60868;DHT22;46702;48.370;10.794;2023-05-07T00:59:10;11.50;99.90
60868;DHT22;46702;48.370;10.794;2023-05-07T01:01:36;11.40;99.90
60868;DHT22;46702;48.370;10.794;2023-05-07T01:04:02;11.40;99.90
60868;DHT22;46702;48.370;10.794;2023-05-07T01:06:29;11.40;99.90
60868;DHT22;46702;48.370;10.794;2023-05-07T01:08:55;11.40;99.90
60868;DHT22;46702;48.370;10.794;2023-05-07T01:11:23;11.20;99.90
60868;DHT22;46702;48.370;10.794;2023-05-07T01:13:49;10.90;99.90
60868;DHT22;46702;48.370;10.794;2023-05-07T01:16:15;10.70;99.90
60868;DHT22;46702;48.370;10.794;2023-05-07T01:18:41;10.90;99.90
60868;DHT22;46702;48.370;10.794;2023-05-07T01:21:08;10.90;99.90
60868;DHT22;46702;48.370;10.794;2023-05-07T01:23:36;11.00;99.90
60868;DHT22;46702;48.370;10.794;2023-05-07T01:26:01;11.00;99.90
60868;DHT22;46702;48.370;10.794;2023-05-07T01:28:27;11.10;99.90
60868;DHT22;46702;48.370;10.794;2023-05-07T01:30:56;11.10;99.90
60868;DHT22;46702;48.370;10.794;2023-05-07T01:33:26;11.20;99.90
60868;DHT22;46702;48.370;10.794;2023-05-07T01:35:53;11.20;99.90
60868;DHT22;46702;48.370;10.794;2023-05-07T01:38:21;11.10;99.90
60868;DHT22;46702;48.370;10.794;2023-05-07T01:40:48;11.10;99.90
60868;DHT22;46702;48.370;10.794;2023-05-07T01:43:13;11.10;99.90
60868;DHT22;46702;48.370;10.794;2023-05-07T01:45:40;11.10;99.90
60868;DHT22;46702;48.370;10.794;2023-05-07T01:48:07;11.20;99.90
60868;DHT22;46702;48.370;10.794;2023-05-07T01:50:34;11.20;99.90
60868;DHT22;46702;48.370;10.794;2023-05-07T01:53:01;11.20;99.90
60868;DHT22;46702;48.370;10.794;2023-05-07T01:55:27;11.20;99.90
60868;DHT22;46702;48.370;10.794;2023-05-07T01:57:53;11.20;99.90
60868;DHT22;46702;48.370;10.794;2023-05-07T02:00:19;11.10;99.90
60868;DHT22;46702;48.370;10.794;2023-05-07T02:02:45;11.10;99.90
60868;DHT22;46702;48.370;10.794;2023-05-07T02:05:10;11.10;99.90
60868;DHT22;46702;48.370;10.794;2023-05-07T02:07:36;11.10;99.90
60868;DHT22;46702;48.370;10.794;2023-05-07T02:10:02;11.10;99.90
60868;DHT22;46702;48.370;10.794;2023-05-07T02:12:28;10.90;99.90
60868;DHT22;46702;48.370;10.794;2023-05-07T02:14:54;10.90;99.90
60868;DHT22;46702;48.370;10.794;2023-05-07T02:17:19;10.90;99.90
60868;DHT22;46702;48.370;10.794;2023-05-07T02:19:45;10.90;99.90
60868;DHT22;46702;48.370;10.794;2023-05-07T02:22:11;10.90;99.90
60868;DHT22;46702;48.370;10.794;2023-05-07T02:24:36;10.80;99.90
60868;DHT22;46702;48.370;10.794;2023-05-07T02:27:02;10.80;99.90
60868;DHT22;46702;48.370;10.794;2023-05-07T02:29:28;10.80;99.90
60868;DHT22;46702;48.370;10.794;2023-05-07T02:31:54;10.80;99.90
60868;DHT22;46702;48.370;10.794;2023-05-07T02:34:21;10.80;99.90
60868;DHT22;46702;48.370;10.794;2023-05-07T02:36:46;10.80;99.90
60868;DHT22;46702;48.370;10.794;2023-05-07T02:39:13;10.70;99.90
60868;DHT22;46702;48.370;10.794;2023-05-07T02:41:38;10.70;99.90
60868;DHT22;46702;48.370;10.794;2023-05-07T02:44:04;10.70;99.90
60868;DHT22;46702;48.370;10.794;2023-05-07T02:46:30;10.60;99.90
60868;DHT22;46702;48.370;10.794;2023-05-07T02:48:55;10.70;99.90
60868;DHT22;46702;48.370;10.794;2023-05-07T02:51:22;10.60;99.90
60868;DHT22;46702;48.370;10.794;2023-05-07T02:53:48;10.70;99.90
60868;DHT22;46702;48.370;10.794;2023-05-07T02:56:14;10.60;99.90
60868;DHT22;46702;48.370;10.794;2023-05-07T02:58:40;10.50;99.90
60868;DHT22;46702;48.370;10.794;2023-05-07T03:01:06;10.50;99.90
60868;DHT22;46702;48.370;10.794;2023-05-07T03:03:32;10.50;99.90
60868;DHT22;46702;48.370;10.794;2023-05-07T03:05:57;10.40;99.90
60868;DHT22;46702;48.370;10.794;2023-05-07T03:08:23;10.30;99.90
60868;DHT22;46702;48.370;10.794;2023-05-07T03:10:49;10.30;99.90
60868;DHT22;46702;48.370;10.794;2023-05-07T03:13:15;10.30;99.90
60868;DHT22;46702;48.370;10.794;2023-05-07T03:15:40;10.40;99.90
60868;DHT22;46702;48.370;10.794;2023-05-07T03:18:06;10.40;99.90
60868;DHT22;46702;48.370;10.794;2023-05-07T03:20:32;10.40;99.90
60868;DHT22;46702;48.370;10.794;2023-05-07T03:22:57;10.40;99.90
60868;DHT22;46702;48.370;10.794;2023-05-07T03:25:23;10.50;99.90
60868;DHT22;46702;48.370;10.794;2023-05-07T03:27:49;10.10;99.90
60868;DHT22;46702;48.370;10.794;2023-05-07T03:30:14;9.90;99.90
60868;DHT22;46702;48.370;10.794;2023-05-07T03:32:40;9.80;99.90
60868;DHT22;46702;48.370;10.794;2023-05-07T03:35:06;9.90;99.90
60868;DHT22;46702;48.370;10.794;2023-05-07T03:37:32;10.00;99.90
60868;DHT22;46702;48.370;10.794;2023-05-07T03:39:58;10.00;99.90
60868;DHT22;46702;48.370;10.794;2023-05-07T03:42:24;10.00;99.90
60868;DHT22;46702;48.370;10.794;2023-05-07T03:44:49;9.90;99.90
60868;DHT22;46702;48.370;10.794;2023-05-07T03:47:15;10.00;99.90
60868;DHT22;46702;48.370;10.794;2023-05-07T03:49:40;10.00;99.90
60868;DHT22;46702;48.370;10.794;2023-05-07T03:52:06;10.00;99.90
60868;DHT22;46702;48.370;10.794;2023-05-07T03:54:32;10.10;99.90
60868;DHT22;46702;48.370;10.794;2023-05-07T03:56:58;10.00;99.90
60868;DHT22;46702;48.370;10.794;2023-05-07T03:59:24;10.00;99.90
60868;DHT22;46702;48.370;10.794;2023-05-07T04:01:49;10.00;99.90
60868;DHT22;46702;48.370;10.794;2023-05-07T04:04:15;10.00;99.90
60868;DHT22;46702;48.370;10.794;2023-05-07T04:06:41;10.00;99.90
60868;DHT22;46702;48.370;10.794;2023-05-07T04:09:07;10.10;99.90
60868;DHT22;46702;48.370;10.794;2023-05-07T04:11:33;10.20;99.90
60868;DHT22;46702;48.370;10.794;2023-05-07T04:13:58;10.10;99.90
60868;DHT22;46702;48.370;10.794;2023-05-07T04:16:24;10.10;99.90
60868;DHT22;46702;48.370;10.794;2023-05-07T04:18:49;10.10;99.90
60868;DHT22;46702;48.370;10.794;2023-05-07T04:21:17;10.20;99.90
60868;DHT22;46702;48.370;10.794;2023-05-07T04:23:43;10.20;99.90
60868;DHT22;46702;48.370;10.794;2023-05-07T04:26:08;10.10;99.90
60868;DHT22;46702;48.370;10.794;2023-05-07T04:28:35;10.10;99.90
60868;DHT22;46702;48.370;10.794;2023-05-07T04:31:01;10.10;99.90
60868;DHT22;46702;48.370;10.794;2023-05-07T04:33:27;10.10;99.90
60868;DHT22;46702;48.370;10.794;2023-05-07T04:35:53;10.10;99.90
60868;DHT22;46702;48.370;10.794;2023-05-07T04:38:19;10.00;99.90
60868;DHT22;46702;48.370;10.794;2023-05-07T04:40:44;10.00;99.90
60868;DHT22;46702;48.370;10.794;2023-05-07T04:43:10;9.90;99.90
60868;DHT22;46702;48.370;10.794;2023-05-07T04:45:36;9.80;99.90
60868;DHT22;46702;48.370;10.794;2023-05-07T04:48:02;9.70;99.90
60868;DHT22;46702;48.370;10.794;2023-05-07T04:50:28;9.70;99.90
60868;DHT22;46702;48.370;10.794;2023-05-07T04:52:54;9.70;99.90
60868;DHT22;46702;48.370;10.794;2023-05-07T04:55:19;9.80;99.90
60868;DHT22;46702;48.370;10.794;2023-05-07T04:57:45;9.90;99.90
60868;DHT22;46702;48.370;10.794;2023-05-07T05:00:11;9.90;99.90
60868;DHT22;46702;48.370;10.794;2023-05-07T05:02:40;10.00;99.90
60868;DHT22;46702;48.370;10.794;2023-05-07T05:05:06;10.10;99.90
60868;DHT22;46702;48.370;10.794;2023-05-07T05:07:32;10.10;99.90
60868;DHT22;46702;48.370;10.794;2023-05-07T05:09:57;10.20;99.90
60868;DHT22;46702;48.370;10.794;2023-05-07T05:12:23;10.30;99.90
60868;DHT22;46702;48.370;10.794;2023-05-07T05:14:51;10.40;99.90
60868;DHT22;46702;48.370;10.794;2023-05-07T05:17:17;10.50;99.90
60868;DHT22;46702;48.370;10.794;2023-05-07T05:19:42;10.60;99.90
60868;DHT22;46702;48.370;10.794;2023-05-07T05:22:08;10.70;99.90
60868;DHT22;46702;48.370;10.794;2023-05-07T05:24:34;10.80;99.90
60868;DHT22;46702;48.370;10.794;2023-05-07T05:26:59;10.90;99.90
60868;DHT22;46702;48.370;10.794;2023-05-07T05:29:27;11.10;99.90
60868;DHT22;46702;48.370;10.794;2023-05-07T05:31:52;11.20;99.90
60868;DHT22;46702;48.370;10.794;2023-05-07T05:34:18;11.40;99.90
60868;DHT22;46702;48.370;10.794;2023-05-07T05:36:45;11.50;99.90
60868;DHT22;46702;48.370;10.794;2023-05-07T05:39:10;11.70;99.90
60868;DHT22;46702;48.370;10.794;2023-05-07T05:41:36;11.90;99.90
60868;DHT22;46702;48.370;10.794;2023-05-07T05:44:02;11.90;99.90
60868;DHT22;46702;48.370;10.794;2023-05-07T05:46:27;12.20;99.90
60868;DHT22;46702;48.370;10.794;2023-05-07T05:48:53;12.20;99.90
60868;DHT22;46702;48.370;10.794;2023-05-07T05:51:19;12.40;99.90
60868;DHT22;46702;48.370;10.794;2023-05-07T05:53:44;12.60;99.90
60868;DHT22;46702;48.370;10.794;2023-05-07T05:56:10;12.80;99.90
60868;DHT22;46702;48.370;10.794;2023-05-07T05:58:35;12.80;99.90
60868;DHT22;46702;48.370;10.794;2023-05-07T06:01:01;12.90;99.90
60868;DHT22;46702;48.370;10.794;2023-05-07T06:03:28;13.10;99.90
60868;DHT22;46702;48.370;10.794;2023-05-07T06:05:53;13.30;99.90
60868;DHT22;46702;48.370;10.794;2023-05-07T06:08:19;13.40;99.90
60868;DHT22;46702;48.370;10.794;2023-05-07T06:10:45;13.50;99.90
60868;DHT22;46702;48.370;10.794;2023-05-07T06:13:11;13.60;99.90
60868;DHT22;46702;48.370;10.794;2023-05-07T06:15:36;13.80;99.90
60868;DHT22;46702;48.370;10.794;2023-05-07T06:18:02;13.90;99.90
60868;DHT22;46702;48.370;10.794;2023-05-07T06:20:28;14.10;99.90
60868;DHT22;46702;48.370;10.794;2023-05-07T06:22:54;14.30;99.90
60868;DHT22;46702;48.370;10.794;2023-05-07T06:25:19;14.40;99.90
60868;DHT22;46702;48.370;10.794;2023-05-07T06:27:45;14.60;99.90
60868;DHT22;46702;48.370;10.794;2023-05-07T06:30:11;14.70;99.90
60868;DHT22;46702;48.370;10.794;2023-05-07T06:32:37;14.80;99.90
60868;DHT22;46702;48.370;10.794;2023-05-07T06:35:02;14.90;99.90
60868;DHT22;46702;48.370;10.794;2023-05-07T06:37:28;15.00;99.90
60868;DHT22;46702;48.370;10.794;2023-05-07T06:39:54;15.10;99.90
60868;DHT22;46702;48.370;10.794;2023-05-07T06:42:19;15.10;99.90
60868;DHT22;46702;48.370;10.794;2023-05-07T06:44:45;15.30;99.90
60868;DHT22;46702;48.370;10.794;2023-05-07T06:47:10;15.30;99.90
60868;DHT22;46702;48.370;10.794;2023-05-07T06:49:36;15.40;99.90
60868;DHT22;46702;48.370;10.794;2023-05-07T06:52:02;15.50;99.90
60868;DHT22;46702;48.370;10.794;2023-05-07T06:54:28;15.60;99.90
60868;DHT22;46702;48.370;10.794;2023-05-07T06:56:54;15.70;99.90
60868;DHT22;46702;48.370;10.794;2023-05-07T06:59:19;15.60;99.90
60868;DHT22;46702;48.370;10.794;2023-05-07T07:01:45;15.60;99.90
60868;DHT22;46702;48.370;10.794;2023-05-07T07:04:11;15.70;99.90
60868;DHT22;46702;48.370;10.794;2023-05-07T07:06:36;15.80;99.90
60868;DHT22;46702;48.370;10.794;2023-05-07T07:09:02;15.90;99.90
60868;DHT22;46702;48.370;10.794;2023-05-07T07:11:27;15.90;99.90
60868;DHT22;46702;48.370;10.794;2023-05-07T07:13:53;16.00;99.90
60868;DHT22;46702;48.370;10.794;2023-05-07T07:16:20;16.00;99.90
60868;DHT22;46702;48.370;10.794;2023-05-07T07:18:46;16.20;99.90
60868;DHT22;46702;48.370;10.794;2023-05-07T07:21:12;16.20;99.90
60868;DHT22;46702;48.370;10.794;2023-05-07T07:23:37;16.40;99.90
60868;DHT22;46702;48.370;10.794;2023-05-07T07:26:03;16.50;99.90
60868;DHT22;46702;48.370;10.794;2023-05-07T07:28:29;16.50;99.90
60868;DHT22;46702;48.370;10.794;2023-05-07T07:30:54;16.70;99.90
60868;DHT22;46702;48.370;10.794;2023-05-07T07:33:20;16.80;99.90
60868;DHT22;46702;48.370;10.794;2023-05-07T07:35:45;16.90;99.90
60868;DHT22;46702;48.370;10.794;2023-05-07T07:38:11;17.00;99.90
60868;DHT22;46702;48.370;10.794;2023-05-07T07:40:37;17.10;99.90
60868;DHT22;46702;48.370;10.794;2023-05-07T07:43:02;17.20;99.90
60868;DHT22;46702;48.370;10.794;2023-05-07T07:45:28;17.40;99.90
60868;DHT22;46702;48.370;10.794;2023-05-07T07:47:54;17.30;99.90
60868;DHT22;46702;48.370;10.794;2023-05-07T07:50:20;17.40;99.90
60868;DHT22;46702;48.370;10.794;2023-05-07T07:52:46;17.40;99.90
60868;DHT22;46702;48.370;10.794;2023-05-07T07:55:12;17.60;99.90
60868;DHT22;46702;48.370;10.794;2023-05-07T07:57:37;17.70;99.90
60868;DHT22;46702;48.370;10.794;2023-05-07T08:00:04;17.90;99.90
60868;DHT22;46702;48.370;10.794;2023-05-07T08:02:31;18.10;99.90
60868;DHT22;46702;48.370;10.794;2023-05-07T08:04:56;18.20;99.90
60868;DHT22;46702;48.370;10.794;2023-05-07T08:07:22;18.30;99.90
60868;DHT22;46702;48.370;10.794;2023-05-07T08:09:48;18.60;99.90
60868;DHT22;46702;48.370;10.794;2023-05-07T08:12:14;18.60;99.90
60868;DHT22;46702;48.370;10.794;2023-05-07T08:14:40;18.70;99.90
60868;DHT22;46702;48.370;10.794;2023-05-07T08:17:06;18.80;99.90
60868;DHT22;46702;48.370;10.794;2023-05-07T08:19:32;18.90;99.90
60868;DHT22;46702;48.370;10.794;2023-05-07T08:21:57;19.00;99.90
60868;DHT22;46702;48.370;10.794;2023-05-07T08:24:23;19.20;99.90
60868;DHT22;46702;48.370;10.794;2023-05-07T08:26:49;19.30;99.90
60868;DHT22;46702;48.370;10.794;2023-05-07T08:29:15;19.30;99.90
60868;DHT22;46702;48.370;10.794;2023-05-07T08:31:40;19.30;99.90
60868;DHT22;46702;48.370;10.794;2023-05-07T08:34:06;19.40;99.90
60868;DHT22;46702;48.370;10.794;2023-05-07T08:36:33;19.40;99.90
60868;DHT22;46702;48.370;10.794;2023-05-07T08:38:59;19.40;99.90
60868;DHT22;46702;48.370;10.794;2023-05-07T08:41:25;19.50;99.90
60868;DHT22;46702;48.370;10.794;2023-05-07T08:43:51;19.70;99.90
60868;DHT22;46702;48.370;10.794;2023-05-07T08:46:18;19.80;99.90
60868;DHT22;46702;48.370;10.794;2023-05-07T08:48:47;19.90;99.90
60868;DHT22;46702;48.370;10.794;2023-05-07T08:51:15;20.10;99.90
60868;DHT22;46702;48.370;10.794;2023-05-07T08:53:41;20.10;99.90
60868;DHT22;46702;48.370;10.794;2023-05-07T08:56:08;20.00;99.90
60868;DHT22;46702;48.370;10.794;2023-05-07T08:58:35;20.20;99.90
60868;DHT22;46702;48.370;10.794;2023-05-07T09:01:08;20.30;99.90
60868;DHT22;46702;48.370;10.794;2023-05-07T09:03:34;20.10;99.90
60868;DHT22;46702;48.370;10.794;2023-05-07T09:06:00;20.00;99.90
60868;DHT22;46702;48.370;10.794;2023-05-07T09:08:29;20.10;99.90
60868;DHT22;46702;48.370;10.794;2023-05-07T09:10:54;20.20;99.90
60868;DHT22;46702;48.370;10.794;2023-05-07T09:13:21;20.20;99.90
60868;DHT22;46702;48.370;10.794;2023-05-07T09:15:49;20.30;99.90
60868;DHT22;46702;48.370;10.794;2023-05-07T09:18:15;20.40;99.90
60868;DHT22;46702;48.370;10.794;2023-05-07T09:20:41;20.40;99.90
60868;DHT22;46702;48.370;10.794;2023-05-07T09:23:07;20.50;99.90
60868;DHT22;46702;48.370;10.794;2023-05-07T09:25:34;20.50;99.90
60868;DHT22;46702;48.370;10.794;2023-05-07T09:28:01;20.50;99.90
60868;DHT22;46702;48.370;10.794;2023-05-07T09:30:33;20.30;99.90
60868;DHT22;46702;48.370;10.794;2023-05-07T09:33:02;20.40;99.90
60868;DHT22;46702;48.370;10.794;2023-05-07T09:35:29;20.50;99.90
60868;DHT22;46702;48.370;10.794;2023-05-07T09:37:59;20.50;99.90
60868;DHT22;46702;48.370;10.794;2023-05-07T09:40:28;20.50;99.90
60868;DHT22;46702;48.370;10.794;2023-05-07T09:42:55;20.60;99.90
60868;DHT22;46702;48.370;10.794;2023-05-07T09:45:30;20.80;99.90
60868;DHT22;46702;48.370;10.794;2023-05-07T09:47:58;20.70;99.90
60868;DHT22;46702;48.370;10.794;2023-05-07T09:50:28;20.80;99.90
60868;DHT22;46702;48.370;10.794;2023-05-07T09:52:55;20.80;99.90
60868;DHT22;46702;48.370;10.794;2023-05-07T09:55:22;20.90;99.90
60868;DHT22;46702;48.370;10.794;2023-05-07T09:57:51;20.90;99.90
60868;DHT22;46702;48.370;10.794;2023-05-07T10:00:20;21.00;99.90
60868;DHT22;46702;48.370;10.794;2023-05-07T10:04:50;21.10;99.90
60868;DHT22;46702;48.370;10.794;2023-05-07T10:07:16;21.00;99.90
60868;DHT22;46702;48.370;10.794;2023-05-07T10:09:42;21.10;99.90
60868;DHT22;46702;48.370;10.794;2023-05-07T10:12:10;21.10;99.90
60868;DHT22;46702;48.370;10.794;2023-05-07T10:14:35;21.20;99.90
60868;DHT22;46702;48.370;10.794;2023-05-07T10:17:02;21.30;99.90
60868;DHT22;46702;48.370;10.794;2023-05-07T10:19:29;21.30;99.90
60868;DHT22;46702;48.370;10.794;2023-05-07T10:21:58;21.40;99.90
60868;DHT22;46702;48.370;10.794;2023-05-07T10:24:36;21.50;99.90
60868;DHT22;46702;48.370;10.794;2023-05-07T10:27:09;21.70;99.90
60868;DHT22;46702;48.370;10.794;2023-05-07T10:30:26;21.90;99.90
60868;DHT22;46702;48.370;10.794;2023-05-07T10:34:54;21.10;99.90
60868;DHT22;46702;48.370;10.794;2023-05-07T10:37:21;21.10;99.90
60868;DHT22;46702;48.370;10.794;2023-05-07T10:39:47;21.20;99.90
60868;DHT22;46702;48.370;10.794;2023-05-07T10:42:14;21.00;99.90
60868;DHT22;46702;48.370;10.794;2023-05-07T10:44:40;20.80;99.90
60868;DHT22;46702;48.370;10.794;2023-05-07T10:47:10;20.80;99.90
60868;DHT22;46702;48.370;10.794;2023-05-07T10:52:14;21.30;99.90
60868;DHT22;46702;48.370;10.794;2023-05-07T10:54:41;21.60;99.90
60868;DHT22;46702;48.370;10.794;2023-05-07T10:57:33;21.70;99.90
60868;DHT22;46702;48.370;10.794;2023-05-07T11:00:04;22.10;99.90
60868;DHT22;46702;48.370;10.794;2023-05-07T11:05:25;21.90;99.90
60868;DHT22;46702;48.370;10.794;2023-05-07T11:08:01;21.90;99.90
60868;DHT22;46702;48.370;10.794;2023-05-07T11:10:53;21.80;99.90
60868;DHT22;46702;48.370;10.794;2023-05-07T11:13:48;21.80;99.90
60868;DHT22;46702;48.370;10.794;2023-05-07T11:16:24;21.70;99.90
60868;DHT22;46702;48.370;10.794;2023-05-07T11:18:52;21.80;99.90
60868;DHT22;46702;48.370;10.794;2023-05-07T11:21:40;22.00;99.90
60868;DHT22;46702;48.370;10.794;2023-05-07T11:24:07;21.90;99.90
60868;DHT22;46702;48.370;10.794;2023-05-07T11:26:53;22.00;99.90
60868;DHT22;46702;48.370;10.794;2023-05-07T11:29:20;22.10;99.90
60868;DHT22;46702;48.370;10.794;2023-05-07T11:31:50;22.30;99.90
60868;DHT22;46702;48.370;10.794;2023-05-07T11:34:25;22.10;99.90
60868;DHT22;46702;48.370;10.794;2023-05-07T11:36:52;21.80;99.90
60868;DHT22;46702;48.370;10.794;2023-05-07T11:39:44;21.80;99.90
60868;DHT22;46702;48.370;10.794;2023-05-07T11:42:35;21.90;99.90
60868;DHT22;46702;48.370;10.794;2023-05-07T11:45:03;22.20;99.90
60868;DHT22;46702;48.370;10.794;2023-05-07T11:47:32;22.10;99.90
60868;DHT22;46702;48.370;10.794;2023-05-07T11:50:04;22.30;99.90
60868;DHT22;46702;48.370;10.794;2023-05-07T11:52:30;22.20;99.90
60868;DHT22;46702;48.370;10.794;2023-05-07T11:54:57;22.30;99.90
60868;DHT22;46702;48.370;10.794;2023-05-07T11:57:24;22.20;99.90
60868;DHT22;46702;48.370;10.794;2023-05-07T11:59:54;22.00;99.90
60868;DHT22;46702;48.370;10.794;2023-05-07T12:02:19;21.60;99.90
60868;DHT22;46702;48.370;10.794;2023-05-07T12:04:45;21.70;99.90
60868;DHT22;46702;48.370;10.794;2023-05-07T12:07:14;21.80;99.90
60868;DHT22;46702;48.370;10.794;2023-05-07T12:09:44;22.20;99.90
60868;DHT22;46702;48.370;10.794;2023-05-07T12:12:10;22.50;99.90
60868;DHT22;46702;48.370;10.794;2023-05-07T12:14:43;22.70;99.90
60868;DHT22;46702;48.370;10.794;2023-05-07T12:17:13;22.70;99.90
60868;DHT22;46702;48.370;10.794;2023-05-07T12:19:40;22.70;99.90
60868;DHT22;46702;48.370;10.794;2023-05-07T12:22:09;22.50;99.90
60868;DHT22;46702;48.370;10.794;2023-05-07T12:24:47;22.40;99.90
60868;DHT22;46702;48.370;10.794;2023-05-07T12:27:16;22.20;99.90
60868;DHT22;46702;48.370;10.794;2023-05-07T12:29:49;22.20;99.90
60868;DHT22;46702;48.370;10.794;2023-05-07T12:32:19;22.30;99.90
60868;DHT22;46702;48.370;10.794;2023-05-07T12:34:46;22.40;99.90
60868;DHT22;46702;48.370;10.794;2023-05-07T12:37:12;22.60;99.90
60868;DHT22;46702;48.370;10.794;2023-05-07T12:39:38;22.50;99.90
60868;DHT22;46702;48.370;10.794;2023-05-07T12:42:14;22.60;99.90
60868;DHT22;46702;48.370;10.794;2023-05-07T12:44:40;22.50;99.90
60868;DHT22;46702;48.370;10.794;2023-05-07T12:47:06;22.30;99.90
60868;DHT22;46702;48.370;10.794;2023-05-07T12:49:34;22.30;99.90
60868;DHT22;46702;48.370;10.794;2023-05-07T12:52:02;22.40;99.90
60868;DHT22;46702;48.370;10.794;2023-05-07T12:54:31;22.30;99.90
60868;DHT22;46702;48.370;10.794;2023-05-07T12:57:05;22.10;99.90
60868;DHT22;46702;48.370;10.794;2023-05-07T12:59:40;21.90;99.90
60868;DHT22;46702;48.370;10.794;2023-05-07T13:02:07;21.60;99.90
60868;DHT22;46702;48.370;10.794;2023-05-07T13:04:33;21.40;99.90
60868;DHT22;46702;48.370;10.794;2023-05-07T13:06:59;21.40;99.90
60868;DHT22;46702;48.370;10.794;2023-05-07T13:09:25;21.50;99.90
60868;DHT22;46702;48.370;10.794;2023-05-07T13:14:18;21.70;99.90
60868;DHT22;46702;48.370;10.794;2023-05-07T13:16:52;21.60;99.90
60868;DHT22;46702;48.370;10.794;2023-05-07T13:19:24;21.60;99.90
60868;DHT22;46702;48.370;10.794;2023-05-07T13:21:49;21.70;99.90
60868;DHT22;46702;48.370;10.794;2023-05-07T13:24:15;21.80;99.90
60868;DHT22;46702;48.370;10.794;2023-05-07T13:26:41;21.80;99.90
60868;DHT22;46702;48.370;10.794;2023-05-07T13:29:06;21.80;99.90
60868;DHT22;46702;48.370;10.794;2023-05-07T13:31:32;21.80;99.90
60868;DHT22;46702;48.370;10.794;2023-05-07T13:33:59;21.90;99.90
60868;DHT22;46702;48.370;10.794;2023-05-07T13:36:24;22.10;99.90
60868;DHT22;46702;48.370;10.794;2023-05-07T13:38:51;21.90;99.90
60868;DHT22;46702;48.370;10.794;2023-05-07T13:41:19;22.00;99.90
60868;DHT22;46702;48.370;10.794;2023-05-07T13:43:45;22.00;99.90
60868;DHT22;46702;48.370;10.794;2023-05-07T13:46:11;21.90;99.90
60868;DHT22;46702;48.370;10.794;2023-05-07T13:48:36;21.90;99.90
60868;DHT22;46702;48.370;10.794;2023-05-07T13:51:02;22.10;99.90
60868;DHT22;46702;48.370;10.794;2023-05-07T13:53:28;22.30;99.90
60868;DHT22;46702;48.370;10.794;2023-05-07T13:55:53;22.30;99.90
60868;DHT22;46702;48.370;10.794;2023-05-07T13:58:22;22.30;99.90
60868;DHT22;46702;48.370;10.794;2023-05-07T14:00:48;22.20;99.90
60868;DHT22;46702;48.370;10.794;2023-05-07T14:03:14;22.00;99.90
60868;DHT22;46702;48.370;10.794;2023-05-07T14:05:39;22.00;99.90
60868;DHT22;46702;48.370;10.794;2023-05-07T14:08:06;21.90;99.90
60868;DHT22;46702;48.370;10.794;2023-05-07T14:10:33;21.80;99.90
60868;DHT22;46702;48.370;10.794;2023-05-07T14:13:00;21.80;99.90
60868;DHT22;46702;48.370;10.794;2023-05-07T14:15:25;21.80;99.90
60868;DHT22;46702;48.370;10.794;2023-05-07T14:17:51;21.80;99.90
60868;DHT22;46702;48.370;10.794;2023-05-07T14:20:20;21.60;99.90
60868;DHT22;46702;48.370;10.794;2023-05-07T14:22:46;21.60;99.90
60868;DHT22;46702;48.370;10.794;2023-05-07T14:25:11;21.60;99.90
60868;DHT22;46702;48.370;10.794;2023-05-07T14:27:38;21.70;99.90
60868;DHT22;46702;48.370;10.794;2023-05-07T14:30:04;21.70;99.90
60868;DHT22;46702;48.370;10.794;2023-05-07T14:32:30;21.70;99.90
60868;DHT22;46702;48.370;10.794;2023-05-07T14:34:55;21.60;99.90
60868;DHT22;46702;48.370;10.794;2023-05-07T14:37:21;21.50;99.90
60868;DHT22;46702;48.370;10.794;2023-05-07T14:39:47;21.30;99.90
60868;DHT22;46702;48.370;10.794;2023-05-07T14:42:12;21.30;99.90
60868;DHT22;46702;48.370;10.794;2023-05-07T14:44:38;21.50;99.90
60868;DHT22;46702;48.370;10.794;2023-05-07T14:47:07;21.60;99.90
60868;DHT22;46702;48.370;10.794;2023-05-07T14:49:33;21.70;99.90
60868;DHT22;46702;48.370;10.794;2023-05-07T14:51:59;21.60;99.90
60868;DHT22;46702;48.370;10.794;2023-05-07T14:54:25;21.60;99.90
60868;DHT22;46702;48.370;10.794;2023-05-07T14:56:51;21.60;99.90
60868;DHT22;46702;48.370;10.794;2023-05-07T14:59:18;21.60;99.90
60868;DHT22;46702;48.370;10.794;2023-05-07T15:01:47;21.70;99.90
60868;DHT22;46702;48.370;10.794;2023-05-07T15:04:13;21.50;99.90
60868;DHT22;46702;48.370;10.794;2023-05-07T15:06:38;21.40;99.90
60868;DHT22;46702;48.370;10.794;2023-05-07T15:09:04;21.20;99.90
60868;DHT22;46702;48.370;10.794;2023-05-07T15:11:30;21.30;99.90
60868;DHT22;46702;48.370;10.794;2023-05-07T15:13:55;21.30;99.90
60868;DHT22;46702;48.370;10.794;2023-05-07T15:16:21;21.30;99.90
60868;DHT22;46702;48.370;10.794;2023-05-07T15:18:47;21.20;99.90
60868;DHT22;46702;48.370;10.794;2023-05-07T15:21:13;21.10;99.90
60868;DHT22;46702;48.370;10.794;2023-05-07T15:23:38;20.90;99.90
60868;DHT22;46702;48.370;10.794;2023-05-07T15:26:04;20.80;99.90
60868;DHT22;46702;48.370;10.794;2023-05-07T15:28:30;20.70;99.90